Time;durP1;ratioP1;P1;durP2;ratioP2;P2;SDS_P1;SDS_P2;PMS_P1;PMS_P2;Temp;Humidity;BMP_temperature;BMP_pressure;BME280_temperature;BME280_humidity;BME280_pressure;Samples;Min_cycle;Max_cycle;Signal;HPM_P1;HPM_P2
2022/06/04 00:00:48;;;;;;;6.72;5.68;;;;;;;;;;5017271;28;20156;-75
2022/06/04 00:03:14;;;;;;;6.72;5.93;;;;;;;;;;4997282;28;20463;-75
2022/06/04 00:05:46;;;;;;;7.15;5.95;;;;;;;;;;5002159;28;20026;-75
2022/06/04 00:08:11;;;;;;;;;;;;;;;;;;4998189;28;20070;-75
2022/06/04 00:16:14;;;;;;;7.63;5.57;;;;;;;;;;4997463;28;20051;-75
2022/06/04 00:18:40;;;;;;;6.88;5.75;;;;;;;;;;4988368;28;20375;-75
2022/06/04 00:21:07;;;;;;;9.80;5.93;;;;;;;;;;5002313;28;20050;-76
2022/06/04 00:23:33;;;;;;;6.90;5.95;;;;;;;;;;5002428;28;20033;-75
2022/06/04 00:26:00;;;;;;;12.32;6.13;;;;;;;;;;4996200;28;20035;-75
2022/06/04 00:28:27;;;;;;;6.47;5.90;;;;;;;;;;5016943;28;20029;-75
2022/06/04 00:30:55;;;;;;;10.63;5.80;;;;;;;;;;4996024;28;20442;-75
2022/06/04 00:33:20;;;;;;;7.65;5.20;;;;;;;;;;5017065;28;20325;-76
2022/06/04 00:35:49;;;;;;;6.03;4.53;;;;;;;;;;4994804;28;20049;-75
2022/06/04 00:38:16;;;;;;;5.28;4.53;;;;;;;;;;5000503;28;20473;-74
2022/06/04 00:40:50;;;;;;;9.43;4.22;;;;;;;;;;4996515;28;20026;-74
2022/06/04 00:43:18;;;;;;;6.55;4.40;;;;;;;;;;5000688;28;20104;-74
2022/06/04 00:46:21;;;;;;;5.15;4.15;;;;;;;;;;5000983;28;20038;-74
2022/06/04 00:48:46;;;;;;;4.88;3.72;;;;;;;;;;4996692;28;20030;-74
2022/06/04 00:51:13;;;;;;;4.47;4.07;;;;;;;;;;5001523;28;20083;-74
2022/06/04 00:53:41;;;;;;;4.22;3.83;;;;;;;;;;4994342;28;20736;-75
2022/06/04 00:56:26;;;;;;;3.83;3.50;;;;;;;;;;5001297;28;20207;-74
2022/06/04 00:59:05;;;;;;;3.80;3.20;;;;;;;;;;5007016;28;20497;-73
2022/06/04 01:01:53;;;;;;;4.07;3.20;;;;;;;;;;5012231;28;20057;-74
2022/06/04 01:07:38;;;;;;;4.68;4.25;;;;;;;;;;4997859;28;20076;-74
2022/06/04 01:10:41;;;;;;;6.30;4.03;;;;;;;;;;5005013;28;20041;-74
2022/06/04 01:13:13;;;;;;;3.42;3.15;;;;;;;;;;4989182;28;20116;-74
2022/06/04 01:15:49;;;;;;;3.92;3.60;;;;;;;;;;5002377;28;20022;-74
2022/06/04 01:18:37;;;;;;;4.55;3.72;;;;;;;;;;4999813;28;20551;-75
2022/06/04 01:21:11;;;;;;;4.10;3.70;;;;;;;;;;4998360;28;20053;-75
2022/06/04 01:24:01;;;;;;;5.13;3.85;;;;;;;;;;4999835;28;20409;-75
2022/06/04 01:26:42;;;;;;;4.95;4.50;;;;;;;;;;4997782;28;20191;-74
2022/06/04 01:29:16;;;;;;;4.20;3.80;;;;;;;;;;5012234;28;20422;-74
2022/06/04 01:32:02;;;;;;;6.78;4.47;;;;;;;;;;5001556;28;20037;-75
2022/06/04 01:34:50;;;;;;;4.75;4.22;;;;;;;;;;4991668;28;20467;-75
2022/06/04 01:37:55;;;;;;;5.88;5.38;;;;;;;;;;5012201;28;20042;-75
2022/06/04 01:43:18;;;;;;;7.43;6.10;;;;;;;;;;4989930;28;20122;-74
2022/06/04 01:45:45;;;;;;;6.20;4.40;;;;;;;;;;5004590;28;20525;-74
2022/06/04 01:48:12;;;;;;;3.92;3.55;;;;;;;;;;5004300;28;20033;-75
2022/06/04 01:50:47;;;;;;;6.80;4.22;;;;;;;;;;4999244;28;20030;-74
2022/06/04 01:53:15;;;;;;;5.57;4.03;;;;;;;;;;5003554;28;20038;-74
2022/06/04 01:56:02;;;;;;;3.78;3.47;;;;;;;;;;4996645;28;20062;-74
2022/06/04 01:58:51;;;;;;;3.75;3.45;;;;;;;;;;4998599;28;20065;-74
2022/06/04 02:01:22;;;;;;;11.45;4.45;;;;;;;;;;5003380;28;20493;-74
2022/06/04 02:04:11;;;;;;;4.72;4.32;;;;;;;;;;5000583;28;20121;-74
2022/06/04 02:07:29;;;;;;;5.70;4.32;;;;;;;;;;5000263;28;20046;-74
2022/06/04 02:09:35;;;;;;;6.07;4.20;;;;;;;;;;4996559;28;20038;-75
2022/06/04 02:12:04;;;;;;;4.10;3.80;;;;;;;;;;5002202;28;20038;-75
2022/06/04 02:14:29;;;;;;;5.40;4.38;;;;;;;;;;4999915;28;20045;-74
2022/06/04 02:17:04;;;;;;;5.07;4.45;;;;;;;;;;5000918;28;20508;-74
2022/06/04 02:19:29;;;;;;;4.10;3.67;;;;;;;;;;5002178;28;20416;-75
2022/06/04 02:21:55;;;;;;;6.32;4.68;;;;;;;;;;5018908;28;20405;-75
2022/06/04 02:24:20;;;;;;;4.85;4.43;;;;;;;;;;5016484;28;20034;-74
2022/06/04 02:26:46;;;;;;;6.05;4.85;;;;;;;;;;5001371;28;20061;-75
2022/06/04 02:29:12;;;;;;;6.55;4.63;;;;;;;;;;5001453;28;20034;-75
2022/06/04 02:32:01;;;;;;;9.75;5.00;;;;;;;;;;5016010;28;20329;-75
2022/06/04 02:34:41;;;;;;;7.60;4.95;;;;;;;;;;5021453;28;20042;-74
2022/06/04 02:37:17;;;;;;;6.50;5.20;;;;;;;;;;4994779;28;20030;-75
2022/06/04 02:39:59;;;;;;;6.45;5.13;;;;;;;;;;5001110;28;20479;-75
2022/06/04 02:42:33;;;;;;;7.32;5.57;;;;;;;;;;5002771;28;20033;-75
2022/06/04 02:45:24;;;;;;;5.93;5.32;;;;;;;;;;4998217;28;20490;-74
2022/06/04 02:48:04;;;;;;;6.38;5.32;;;;;;;;;;5011428;28;20037;-74
2022/06/04 02:50:41;;;;;;;8.95;5.03;;;;;;;;;;4999388;28;20066;-74
2022/06/04 02:53:09;;;;;;;7.63;5.70;;;;;;;;;;5002360;28;20080;-74
2022/06/04 02:55:47;;;;;;;6.15;5.55;;;;;;;;;;4997740;28;20030;-74
2022/06/04 02:58:16;;;;;;;6.70;5.88;;;;;;;;;;5006089;28;20533;-73
2022/06/04 03:00:42;;;;;;;6.53;5.93;;;;;;;;;;5001237;28;20133;-73
2022/06/04 03:03:13;;;;;;;8.18;5.93;;;;;;;;;;4998572;28;20556;-73
2022/06/04 03:05:51;;;;;;;7.03;6.33;;;;;;;;;;5002494;28;20572;-74
2022/06/04 03:08:16;;;;;;;8.23;5.97;;;;;;;;;;5000274;28;20034;-74
2022/06/04 03:10:43;;;;;;;8.88;6.45;;;;;;;;;;4996739;28;20034;-74
2022/06/04 03:13:09;;;;;;;8.40;6.30;;;;;;;;;;5016069;28;20553;-74
2022/06/04 03:15:34;;;;;;;8.13;5.97;;;;;;;;;;4999825;28;20167;-74
2022/06/04 03:18:00;;;;;;;10.15;5.97;;;;;;;;;;4996966;28;20525;-74
2022/06/04 03:20:27;;;;;;;7.60;5.90;;;;;;;;;;5016380;28;20069;-75
2022/06/04 03:22:53;;;;;;;8.52;6.25;;;;;;;;;;5000156;28;20057;-75
2022/06/04 03:25:19;;;;;;;6.57;5.78;;;;;;;;;;5007873;28;20034;-75
2022/06/04 03:27:45;;;;;;;8.27;6.20;;;;;;;;;;5000984;28;20060;-75
2022/06/04 03:30:12;;;;;;;14.48;6.85;;;;;;;;;;4998492;28;20428;-75
2022/06/04 03:32:38;;;;;;;8.52;6.90;;;;;;;;;;5001349;28;20115;-74
2022/06/04 03:35:03;;;;;;;8.48;6.47;;;;;;;;;;4997465;28;20080;-75
2022/06/04 03:37:29;;;;;;;8.57;6.50;;;;;;;;;;5001507;28;20088;-76
2022/06/04 03:39:55;;;;;;;7.10;6.20;;;;;;;;;;4997106;28;20333;-75
2022/06/04 03:42:22;;;;;;;8.88;6.07;;;;;;;;;;5001616;28;20525;-75
2022/06/04 03:44:47;;;;;;;8.88;6.75;;;;;;;;;;5006153;28;20371;-75
2022/06/04 03:47:16;;;;;;;6.50;5.85;;;;;;;;;;5000566;28;20033;-75
2022/06/04 03:49:42;;;;;;;8.82;5.85;;;;;;;;;;4996731;28;20037;-75
2022/06/04 03:52:07;;;;;;;7.07;6.45;;;;;;;;;;5001447;28;20041;-75
2022/06/04 04:00:12;;;;;;;7.53;6.65;;;;;;;;;;4999292;28;20037;-75
2022/06/04 04:02:38;;;;;;;7.93;6.90;;;;;;;;;;4993336;28;20026;-75
2022/06/04 04:05:05;;;;;;;13.15;7.70;;;;;;;;;;5002471;28;20117;-75
2022/06/04 04:07:31;;;;;;;8.45;6.63;;;;;;;;;;4994769;28;20038;-75
2022/06/04 04:09:57;;;;;;;9.23;7.28;;;;;;;;;;5017105;28;20037;-75
2022/06/04 04:12:22;;;;;;;10.48;7.22;;;;;;;;;;4996477;28;20398;-74
2022/06/04 04:14:48;;;;;;;11.38;7.20;;;;;;;;;;5001017;28;20072;-75
2022/06/04 04:17:13;;;;;;;7.47;6.30;;;;;;;;;;4996333;28;20455;-75
2022/06/04 04:19:39;;;;;;;9.00;7.28;;;;;;;;;;5002604;28;20116;-75
2022/06/04 04:22:04;;;;;;;9.63;7.80;;;;;;;;;;4999789;28;20046;-75
2022/06/04 04:24:30;;;;;;;8.27;7.07;;;;;;;;;;4996460;28;20034;-75
2022/06/04 04:26:55;;;;;;;7.75;7.05;;;;;;;;;;5007400;28;20038;-76
2022/06/04 04:29:20;;;;;;;12.20;7.63;;;;;;;;;;5011851;28;20431;-75
2022/06/04 04:31:46;;;;;;;8.25;7.35;;;;;;;;;;5001112;28;20516;-75
2022/06/04 04:34:12;;;;;;;8.07;7.28;;;;;;;;;;4996884;28;20117;-75
2022/06/04 04:36:37;;;;;;;8.90;7.45;;;;;;;;;;5001080;28;20080;-75
2022/06/04 04:39:03;;;;;;;8.90;7.60;;;;;;;;;;4996888;28;20046;-75
2022/06/04 04:41:29;;;;;;;8.07;7.28;;;;;;;;;;5007214;28;20065;-75
2022/06/04 04:43:54;;;;;;;9.00;7.97;;;;;;;;;;4996856;28;20030;-75
2022/06/04 04:46:20;;;;;;;10.98;7.82;;;;;;;;;;5000385;28;20026;-75
2022/06/04 04:48:47;;;;;;;10.88;7.85;;;;;;;;;;4997169;28;20049;-75
2022/06/04 04:51:20;;;;;;;11.23;8.35;;;;;;;;;;4995371;28;20030;-76
2022/06/04 04:53:47;;;;;;;13.90;7.80;;;;;;;;;;5001057;28;20041;-75
2022/06/04 04:56:22;;;;;;;9.75;7.97;;;;;;;;;;5011230;28;20441;-75
2022/06/04 04:58:48;;;;;;;9.82;7.97;;;;;;;;;;4989841;28;20485;-75
2022/06/04 05:01:16;;;;;;;13.07;9.20;;;;;;;;;;4995329;28;20082;-75
2022/06/04 05:03:44;;;;;;;11.50;9.45;;;;;;;;;;5016429;28;20033;-76
2022/06/04 05:06:11;;;;;;;16.02;9.57;;;;;;;;;;4995436;28;20042;-76
2022/06/04 05:08:37;;;;;;;9.63;8.65;;;;;;;;;;5015490;28;20033;-76
2022/06/04 05:11:10;;;;;;;11.10;9.55;;;;;;;;;;4996455;28;20467;-75
2022/06/04 05:13:36;;;;;;;11.05;8.77;;;;;;;;;;4999867;28;20127;-75
2022/06/04 05:16:02;;;;;;;14.68;8.75;;;;;;;;;;4997114;28;20026;-75
2022/06/04 05:18:27;;;;;;;9.88;8.88;;;;;;;;;;5016582;28;20128;-75
2022/06/04 05:20:53;;;;;;;13.20;9.30;;;;;;;;;;4997532;28;20026;-76
2022/06/04 05:23:18;;;;;;;9.88;8.93;;;;;;;;;;4994478;28;20044;-75
2022/06/04 05:25:44;;;;;;;12.30;9.52;;;;;;;;;;5009165;28;20064;-74
2022/06/04 05:28:10;;;;;;;11.77;9.38;;;;;;;;;;5004114;28;20037;-74
2022/06/04 05:30:35;;;;;;;13.35;9.75;;;;;;;;;;5008559;28;20431;-75
2022/06/04 05:33:01;;;;;;;15.38;10.20;;;;;;;;;;5004143;28;20029;-75
2022/06/04 05:35:26;;;;;;;13.85;9.88;;;;;;;;;;4998593;28;20044;-75
2022/06/04 05:37:52;;;;;;;16.17;10.40;;;;;;;;;;5004491;28;20030;-75
2022/06/04 05:40:17;;;;;;;11.82;9.90;;;;;;;;;;4998411;28;20439;-75
2022/06/04 05:42:43;;;;;;;11.38;9.43;;;;;;;;;;5004403;28;20026;-76
2022/06/04 05:45:09;;;;;;;16.73;12.50;;;;;;;;;;4999188;28;20038;-76
2022/06/04 05:47:35;;;;;;;13.93;10.60;;;;;;;;;;5005051;28;20029;-75
2022/06/04 05:50:00;;;;;;;16.67;10.88;;;;;;;;;;4998846;28;20038;-76
2022/06/04 05:52:26;;;;;;;32.00;11.98;;;;;;;;;;5005503;28;20784;-75
2022/06/04 05:54:51;;;;;;;10.98;9.73;;;;;;;;;;4998569;28;20041;-75
2022/06/04 05:57:17;;;;;;;12.02;9.57;;;;;;;;;;5004762;28;20456;-75
2022/06/04 05:59:43;;;;;;;16.38;9.63;;;;;;;;;;5013660;28;20026;-75
2022/06/04 06:02:10;;;;;;;11.57;8.73;;;;;;;;;;5004181;28;20124;-76
2022/06/04 06:04:35;;;;;;;13.23;10.32;;;;;;;;;;4999216;28;20105;-75
2022/06/04 06:07:01;;;;;;;13.60;10.05;;;;;;;;;;5003759;28;20446;-75
2022/06/04 06:09:27;;;;;;;13.82;10.27;;;;;;;;;;4999307;28;20458;-77
2022/06/04 06:11:53;;;;;;;14.57;11.05;;;;;;;;;;5002486;28;20025;-75
2022/06/04 06:14:20;;;;;;;11.90;10.60;;;;;;;;;;5013875;28;20429;-76
2022/06/04 06:16:48;;;;;;;14.73;10.45;;;;;;;;;;5002743;28;20087;-76
2022/06/04 06:19:15;;;;;;;12.13;9.77;;;;;;;;;;5014045;28;20022;-76
2022/06/04 06:21:42;;;;;;;13.32;10.43;;;;;;;;;;4998024;28;20042;-76
2022/06/04 06:24:09;;;;;;;15.27;11.20;;;;;;;;;;5002619;28;20030;-75
2022/06/04 06:26:41;;;;;;;14.80;10.32;;;;;;;;;;5013196;28;20048;-75
2022/06/04 06:29:07;;;;;;;17.27;12.70;;;;;;;;;;4997107;28;20084;-75
2022/06/04 06:31:34;;;;;;;14.85;11.25;;;;;;;;;;4997628;28;20510;-76
2022/06/04 06:34:00;;;;;;;10.88;9.30;;;;;;;;;;5002258;28;20600;-75
2022/06/04 06:36:28;;;;;;;14.52;9.43;;;;;;;;;;4997089;28;20125;-76
2022/06/04 06:38:53;;;;;;;20.88;11.02;;;;;;;;;;5003231;28;20030;-76
2022/06/04 06:41:23;;;;;;;12.90;9.18;;;;;;;;;;4998232;28;20132;-75
2022/06/04 06:43:50;;;;;;;9.25;8.27;;;;;;;;;;4997375;28;20034;-75
2022/06/04 06:46:18;;;;;;;12.05;8.85;;;;;;;;;;5002943;28;20040;-76
2022/06/04 06:48:45;;;;;;;9.60;8.52;;;;;;;;;;4998766;28;20041;-76
2022/06/04 06:51:45;;;;;;;15.23;10.18;;;;;;;;;;5002648;28;20029;-76
2022/06/04 06:54:11;;;;;;;10.15;8.52;;;;;;;;;;5003596;28;20397;-76
2022/06/04 06:56:41;;;;;;;9.38;8.20;;;;;;;;;;4996801;28;20026;-76
2022/06/04 06:59:07;;;;;;;12.13;9.00;;;;;;;;;;5002485;28;20265;-76
2022/06/04 07:01:34;;;;;;;14.23;8.32;;;;;;;;;;4997920;28;20117;-76
2022/06/04 07:04:01;;;;;;;9.30;7.75;;;;;;;;;;5001988;28;20079;-76
2022/06/04 07:06:36;;;;;;;8.73;6.90;;;;;;;;;;4998061;28;20058;-75
2022/06/04 07:09:05;;;;;;;7.63;6.93;;;;;;;;;;5006501;28;20117;-75
2022/06/04 07:11:31;;;;;;;11.23;7.93;;;;;;;;;;5018888;28;20470;-75
2022/06/04 07:13:56;;;;;;;9.48;8.45;;;;;;;;;;5017866;28;20064;-77
2022/06/04 07:16:22;;;;;;;18.70;9.52;;;;;;;;;;5003252;28;20045;-76
2022/06/04 07:18:48;;;;;;;11.38;8.40;;;;;;;;;;5017629;28;20445;-76
2022/06/04 07:21:14;;;;;;;8.20;7.40;;;;;;;;;;4996090;28;20052;-77
2022/06/04 07:23:39;;;;;;;10.93;8.00;;;;;;;;;;4997776;28;20509;-75
2022/06/04 07:26:05;;;;;;;9.15;7.90;;;;;;;;;;5002842;28;20037;-76
2022/06/04 07:28:33;;;;;;;9.73;7.60;;;;;;;;;;4997748;28;20083;-78
2022/06/04 07:30:59;;;;;;;10.65;8.50;;;;;;;;;;5017409;28;20496;-75
2022/06/04 07:33:28;;;;;;;11.93;8.15;;;;;;;;;;4997348;28;20033;-76
2022/06/04 07:35:53;;;;;;;9.40;8.40;;;;;;;;;;5017376;28;20026;-76
2022/06/04 07:38:19;;;;;;;9.55;8.13;;;;;;;;;;4997204;28;20026;-75
2022/06/04 07:40:45;;;;;;;15.68;8.32;;;;;;;;;;5017081;28;20501;-75
2022/06/04 07:43:12;;;;;;;8.98;8.05;;;;;;;;;;4996163;28;20165;-75
2022/06/04 07:45:38;;;;;;;13.45;7.78;;;;;;;;;;4996258;28;20030;-76
2022/06/04 07:48:05;;;;;;;9.13;7.82;;;;;;;;;;5003027;28;20067;-77
2022/06/04 07:50:30;;;;;;;8.05;7.25;;;;;;;;;;5011409;28;20127;-76
2022/06/04 07:52:57;;;;;;;7.90;7.10;;;;;;;;;;5002291;28;20140;-76
2022/06/04 07:55:23;;;;;;;9.60;7.68;;;;;;;;;;4996831;28;20414;-76
2022/06/04 07:57:48;;;;;;;11.27;8.35;;;;;;;;;;5002889;28;20461;-76
2022/06/04 08:00:14;;;;;;;10.70;8.57;;;;;;;;;;4995842;28;20030;-76
2022/06/04 08:02:42;;;;;;;10.57;9.57;;;;;;;;;;4989883;28;20105;-75
2022/06/04 08:05:08;;;;;;;11.35;10.15;;;;;;;;;;4990472;28;20168;-76
2022/06/04 08:07:36;;;;;;;16.90;10.05;;;;;;;;;;5001186;28;20507;-76
2022/06/04 08:10:03;;;;;;;11.57;9.60;;;;;;;;;;4994838;28;20029;-76
2022/06/04 08:12:34;;;;;;;9.77;8.85;;;;;;;;;;5001067;28;20079;-75
2022/06/04 08:15:01;;;;;;;8.80;8.05;;;;;;;;;;4994746;28;20393;-75
2022/06/04 08:17:26;;;;;;;10.70;8.20;;;;;;;;;;5002365;28;20028;-76
2022/06/04 08:19:52;;;;;;;9.68;7.53;;;;;;;;;;4996560;28;20034;-76
2022/06/04 08:22:18;;;;;;;9.40;7.63;;;;;;;;;;4992782;28;20054;-76
2022/06/04 08:24:47;;;;;;;9.98;7.72;;;;;;;;;;4999760;28;20453;-76
2022/06/04 08:27:13;;;;;;;10.65;7.20;;;;;;;;;;5005676;28;20089;-76
2022/06/04 08:29:39;;;;;;;9.45;7.70;;;;;;;;;;5016027;28;20056;-76
2022/06/04 08:32:05;;;;;;;8.40;7.45;;;;;;;;;;4994023;28;20374;-77
2022/06/04 08:34:32;;;;;;;8.02;7.15;;;;;;;;;;4996880;28;20026;-76
2022/06/04 08:36:59;;;;;;;9.70;8.00;;;;;;;;;;5000696;28;20030;-76
2022/06/04 08:39:26;;;;;;;8.10;7.32;;;;;;;;;;4995581;28;20148;-77
2022/06/04 08:42:04;;;;;;;8.40;7.43;;;;;;;;;;4999113;28;20517;-76
2022/06/04 08:44:39;;;;;;;11.30;7.95;;;;;;;;;;4998097;28;20125;-76
2022/06/04 08:47:15;;;;;;;9.63;7.00;;;;;;;;;;4997676;28;20374;-76
2022/06/04 08:49:48;;;;;;;8.43;6.65;;;;;;;;;;5000527;28;20034;-76
2022/06/04 08:52:18;;;;;;;7.82;7.00;;;;;;;;;;4995814;28;20022;-76
2022/06/04 08:57:44;;;;;;;8.27;7.38;;;;;;;;;;4994081;28;20363;-77
2022/06/04 09:00:30;;;;;;;8.43;7.63;;;;;;;;;;5001626;28;20029;-76
2022/06/04 09:03:33;;;;;;;11.95;7.30;;;;;;;;;;4995634;28;20053;-77
2022/06/04 09:06:08;;;;;;;11.00;7.70;;;;;;;;;;5015289;28;20049;-77
2022/06/04 09:08:49;;;;;;;7.75;7.05;;;;;;;;;;5000173;28;20505;-76
2022/06/04 09:11:21;;;;;;;;;;;;;;;;;;4997222;28;20100;-76
2022/06/04 09:14:13;;;;;;;7.50;6.72;;;;;;;;;;4997547;28;19921;-77
2022/06/04 09:16:46;;;;;;;6.85;6.20;;;;;;;;;;5001067;28;20207;-76
2022/06/04 09:19:18;;;;;;;10.48;6.72;;;;;;;;;;4989310;28;20038;-76
2022/06/04 09:21:46;;;;;;;10.68;8.52;;;;;;;;;;4996386;28;20050;-77
2022/06/04 09:24:12;;;;;;;7.20;6.60;;;;;;;;;;5015373;28;20117;-76
2022/06/04 09:27:05;;;;;;;7.40;6.70;;;;;;;;;;4996679;28;20121;-77
2022/06/04 09:29:39;;;;;;;9.52;7.63;;;;;;;;;;4997291;28;20022;-76
2022/06/04 09:32:05;;;;;;;7.53;6.45;;;;;;;;;;5000660;28;20366;-76
2022/06/04 09:34:36;;;;;;;7.53;6.82;;;;;;;;;;5011221;28;20038;-77
2022/06/04 09:37:02;;;;;;;6.90;6.20;;;;;;;;;;4999714;28;20460;-77
2022/06/04 09:39:33;;;;;;;8.88;5.85;;;;;;;;;;4993774;28;20088;-76
2022/06/04 09:42:04;;;;;;;7.05;6.05;;;;;;;;;;4988811;28;20545;-77
2022/06/04 09:44:36;;;;;;;6.45;5.95;;;;;;;;;;5016118;28;20061;-76
2022/06/04 09:47:04;;;;;;;9.93;5.93;;;;;;;;;;4996074;28;20034;-76
2022/06/04 09:49:40;;;;;;;8.68;6.82;;;;;;;;;;5014859;28;20037;-75
2022/06/04 09:52:36;;;;;;;8.15;6.32;;;;;;;;;;4997608;28;20365;-76
2022/06/04 09:55:16;;;;;;;7.65;6.60;;;;;;;;;;4994007;28;20066;-75
2022/06/04 09:57:41;;;;;;;7.85;7.10;;;;;;;;;;4998721;28;20022;-75
2022/06/04 10:00:32;;;;;;;7.68;6.53;;;;;;;;;;4995378;28;20155;-76
2022/06/04 10:03:01;;;;;;;9.38;7.25;;;;;;;;;;4995872;28;20104;-76
2022/06/04 10:05:30;;;;;;;7.18;6.55;;;;;;;;;;5000549;28;20041;-76
2022/06/04 10:07:56;;;;;;;11.35;7.15;;;;;;;;;;4998936;28;20120;-75
2022/06/04 10:10:32;;;;;;;7.30;6.60;;;;;;;;;;5002910;28;20073;-75
2022/06/04 10:15:48;;;;;;;6.18;5.65;;;;;;;;;;5002483;28;20097;-76
2022/06/04 10:18:28;;;;;;;7.53;6.35;;;;;;;;;;5002359;28;20394;-76
2022/06/04 10:21:13;;;;;;;8.70;6.83;;;;;;;;;;4998717;28;20390;-77
2022/06/04 10:23:47;;;;;;;16.08;8.85;;;;;;;;;;4993391;28;20661;-76
2022/06/04 10:26:29;;;;;;;10.90;9.85;;;;;;;;;;5003726;28;20088;-75
2022/06/04 10:29:23;;;;;;;13.07;10.75;;;;;;;;;;5008791;28;20040;-77
2022/06/04 10:32:22;;;;;;;14.73;10.25;;;;;;;;;;5012558;28;20490;-77
2022/06/04 10:34:53;;;;;;;13.38;10.80;;;;;;;;;;4998837;28;20022;-76
2022/06/04 10:37:38;;;;;;;;;;;;;;;;;;5004660;28;20450;-75
2022/06/04 10:40:32;;;;;;;12.45;11.25;;;;;;;;;;4994539;28;19920;-76
2022/06/04 10:43:22;;;;;;;13.05;11.35;;;;;;;;;;4998421;28;20041;-76
2022/06/04 10:46:25;;;;;;;15.90;12.25;;;;;;;;;;4996152;28;20046;-75
2022/06/04 10:49:03;;;;;;;14.73;13.18;;;;;;;;;;5007630;28;20069;-77
2022/06/04 10:51:56;;;;;;;16.85;13.80;;;;;;;;;;5000575;28;20040;-77
2022/06/04 10:54:39;;;;;;;14.88;13.30;;;;;;;;;;5003299;28;20033;-75
2022/06/04 10:57:29;;;;;;;12.18;10.98;;;;;;;;;;4992943;28;20438;-77
2022/06/04 11:00:01;;;;;;;12.80;10.57;;;;;;;;;;4999304;28;20026;-76
2022/06/04 11:02:57;;;;;;;12.98;11.02;;;;;;;;;;5003222;28;20034;-77
2022/06/04 11:05:31;;;;;;;15.05;10.57;;;;;;;;;;4996752;28;20060;-76
2022/06/04 11:08:15;;;;;;;13.48;10.23;;;;;;;;;;4999954;28;20772;-76
2022/06/04 11:10:47;;;;;;;12.52;11.10;;;;;;;;;;5002047;28;20057;-76
2022/06/04 11:13:23;;;;;;;11.95;10.30;;;;;;;;;;4991459;28;20045;-76
2022/06/04 11:16:00;;;;;;;12.82;11.52;;;;;;;;;;5001669;28;20030;-76
2022/06/04 11:18:50;;;;;;;11.32;9.85;;;;;;;;;;4999847;28;20095;-77
2022/06/04 11:21:36;;;;;;;12.25;10.68;;;;;;;;;;4995482;28;20046;-76
2022/06/04 11:24:19;;;;;;;14.32;10.45;;;;;;;;;;4993521;28;20090;-77
2022/06/04 11:26:52;;;;;;;14.07;9.35;;;;;;;;;;4998867;28;20038;-76
2022/06/04 11:29:18;;;;;;;11.73;9.15;;;;;;;;;;5000696;28;20546;-76
2022/06/04 11:32:15;;;;;;;10.68;9.65;;;;;;;;;;5008002;28;20427;-77
2022/06/04 11:35:08;;;;;;;11.65;9.27;;;;;;;;;;4999743;28;20029;-77
2022/06/04 11:37:52;;;;;;;9.68;8.77;;;;;;;;;;4997134;28;20033;-77
2022/06/04 11:40:35;;;;;;;10.20;9.15;;;;;;;;;;5015214;28;20438;-76
2022/06/04 11:43:42;;;;;;;10.60;9.68;;;;;;;;;;5001379;28;20030;-75
2022/06/04 11:46:43;;;;;;;10.55;9.05;;;;;;;;;;5019912;28;20034;-77
2022/06/04 11:49:17;;;;;;;9.25;8.35;;;;;;;;;;4998781;28;20085;-77
2022/06/04 11:51:51;;;;;;;8.95;8.15;;;;;;;;;;5014838;28;20026;-77
2022/06/04 11:54:24;;;;;;;9.00;8.30;;;;;;;;;;5000872;28;20179;-76
2022/06/04 11:57:25;;;;;;;9.40;8.48;;;;;;;;;;4997479;28;20030;-75
2022/06/04 11:59:56;;;;;;;8.80;8.10;;;;;;;;;;4992028;28;20049;-76
2022/06/04 12:03:08;;;;;;;9.18;8.15;;;;;;;;;;4999287;28;20096;-76
2022/06/04 12:05:46;;;;;;;9.05;8.15;;;;;;;;;;5001821;28;20033;-76
2022/06/04 12:08:18;;;;;;;12.00;7.75;;;;;;;;;;4997521;28;20077;-76
2022/06/04 12:11:06;;;;;;;8.00;7.30;;;;;;;;;;5002587;28;20022;-76
2022/06/04 12:13:42;;;;;;;8.48;7.68;;;;;;;;;;4998273;28;20065;-77
2022/06/04 12:16:24;;;;;;;11.07;7.43;;;;;;;;;;4999468;28;20054;-76
2022/06/04 12:18:59;;;;;;;7.88;7.18;;;;;;;;;;5000146;28;20029;-76
2022/06/04 12:24:22;;;;;;;6.82;6.22;;;;;;;;;;5002655;28;20041;-76
2022/06/04 12:26:49;;;;;;;9.13;5.95;;;;;;;;;;4997728;28;20018;-77
2022/06/04 12:29:32;;;;;;;7.50;6.38;;;;;;;;;;4999299;28;20079;-76
2022/06/04 12:32:06;;;;;;;8.25;6.03;;;;;;;;;;5003953;28;20125;-76
2022/06/04 12:34:39;;;;;;;6.18;5.57;;;;;;;;;;5002846;28;20081;-77
2022/06/04 12:37:20;;;;;;;6.30;5.78;;;;;;;;;;5015665;28;20029;-76
2022/06/04 12:39:45;;;;;;;7.43;6.15;;;;;;;;;;5000871;28;20036;-77
2022/06/04 12:42:20;;;;;;;5.70;4.95;;;;;;;;;;4997269;28;20470;-77
2022/06/04 12:44:58;;;;;;;7.65;5.13;;;;;;;;;;4997632;28;20033;-77
2022/06/04 12:47:33;;;;;;;8.82;6.72;;;;;;;;;;4999890;28;20030;-77
2022/06/04 12:50:20;;;;;;;6.20;5.60;;;;;;;;;;4994430;28;20034;-77
2022/06/04 12:52:51;;;;;;;8.02;4.97;;;;;;;;;;4997023;28;20387;-76
2022/06/04 12:55:25;;;;;;;7.70;4.65;;;;;;;;;;4999264;28;20051;-76
2022/06/04 12:57:55;;;;;;;6.63;4.60;;;;;;;;;;4997281;28;20041;-76
2022/06/04 13:00:23;;;;;;;6.27;5.23;;;;;;;;;;5015232;28;20450;-77
2022/06/04 13:03:07;;;;;;;5.43;5.03;;;;;;;;;;4996471;28;20331;-76
2022/06/04 13:05:36;;;;;;;5.32;4.88;;;;;;;;;;4991483;28;20030;-76
2022/06/04 13:08:16;;;;;;;4.93;4.50;;;;;;;;;;5000074;28;20461;-77
2022/06/04 13:10:48;;;;;;;;;;;;;;;;;;4997685;28;20033;-75
2022/06/04 13:13:35;;;;;;;7.47;4.60;;;;;;;;;;4996982;28;19967;-76
2022/06/04 13:16:05;;;;;;;4.63;4.20;;;;;;;;;;4989233;28;20141;-76
2022/06/04 13:18:35;;;;;;;4.07;3.78;;;;;;;;;;4996359;28;20060;-76
2022/06/04 13:21:03;;;;;;;5.95;4.43;;;;;;;;;;4999302;28;20112;-77
2022/06/04 13:23:34;;;;;;;5.65;4.50;;;;;;;;;;4997166;28;20037;-77
2022/06/04 13:26:20;;;;;;;5.88;4.35;;;;;;;;;;4999234;28;20060;-77
2022/06/04 13:28:49;;;;;;;4.25;3.95;;;;;;;;;;5000054;28;20102;-77
2022/06/04 13:31:19;;;;;;;5.40;3.70;;;;;;;;;;4995908;28;20053;-77
2022/06/04 13:33:45;;;;;;;4.30;3.90;;;;;;;;;;5001176;28;20030;-76
2022/06/04 13:36:12;;;;;;;4.82;3.97;;;;;;;;;;4995962;28;20274;-77
2022/06/04 13:38:43;;;;;;;5.80;3.83;;;;;;;;;;5015926;28;20061;-77
2022/06/04 13:42:02;;;;;;;3.88;3.58;;;;;;;;;;4997987;28;20030;-77
2022/06/04 13:44:53;;;;;;;4.38;3.90;;;;;;;;;;5005032;28;20029;-76
2022/06/04 13:47:25;;;;;;;4.50;4.10;;;;;;;;;;5004209;28;20035;-76
2022/06/04 13:50:10;;;;;;;5.18;3.90;;;;;;;;;;5017681;28;20719;-75
2022/06/04 13:52:47;;;;;;;4.35;3.97;;;;;;;;;;4991165;28;20049;-77
2022/06/04 13:55:25;;;;;;;4.45;4.05;;;;;;;;;;5003562;28;20211;-76
2022/06/04 13:57:52;;;;;;;4.82;4.43;;;;;;;;;;5000084;28;20861;-76
2022/06/04 14:00:23;;;;;;;17.67;5.22;;;;;;;;;;5004577;28;20037;-76
2022/06/04 14:02:52;;;;;;;8.60;4.25;;;;;;;;;;5016331;28;20026;-76
2022/06/04 14:05:51;;;;;;;5.55;3.97;;;;;;;;;;5002867;28;20172;-76
2022/06/04 14:08:30;;;;;;;4.95;4.43;;;;;;;;;;4995869;28;20034;-76
2022/06/04 14:11:01;;;;;;;6.43;4.43;;;;;;;;;;5016744;28;20096;-76
2022/06/04 14:13:48;;;;;;;4.80;4.07;;;;;;;;;;5001083;28;20025;-76
2022/06/04 14:16:14;;;;;;;5.40;4.38;;;;;;;;;;4998407;28;20023;-76
2022/06/04 14:19:00;;;;;;;5.57;4.28;;;;;;;;;;4990223;28;20378;-76
2022/06/04 14:21:43;;;;;;;4.60;4.07;;;;;;;;;;5011128;28;20045;-76
2022/06/04 14:24:14;;;;;;;5.30;4.80;;;;;;;;;;4999891;28;20085;-76
2022/06/04 14:27:01;;;;;;;7.30;4.78;;;;;;;;;;5003636;28;20024;-77
2022/06/04 14:29:42;;;;;;;5.90;4.30;;;;;;;;;;4999666;28;20037;-75
2022/06/04 14:32:23;;;;;;;5.05;3.83;;;;;;;;;;5001033;28;20026;-75
2022/06/04 14:34:49;;;;;;;5.80;4.68;;;;;;;;;;5003323;28;20037;-77
2022/06/04 14:37:27;;;;;;;8.02;4.80;;;;;;;;;;5004478;28;20026;-77
2022/06/04 14:39:56;;;;;;;4.60;4.20;;;;;;;;;;4998042;28;20494;-75
2022/06/04 14:43:00;;;;;;;4.68;4.28;;;;;;;;;;5018228;28;20048;-76
2022/06/04 14:45:34;;;;;;;6.13;4.30;;;;;;;;;;5009981;28;20054;-76
2022/06/04 14:48:19;;;;;;;6.78;4.93;;;;;;;;;;4991717;28;20033;-76
2022/06/04 14:51:20;;;;;;;5.70;4.35;;;;;;;;;;5017993;28;20109;-75
2022/06/04 14:53:46;;;;;;;9.25;5.40;;;;;;;;;;4992590;28;20022;-77
2022/06/04 14:56:47;;;;;;;5.07;4.57;;;;;;;;;;5018183;28;20049;-75
2022/06/04 14:59:41;;;;;;;5.35;4.30;;;;;;;;;;5034837;28;20038;-77
2022/06/04 15:02:18;;;;;;;5.35;4.95;;;;;;;;;;4982136;28;20045;-75
2022/06/04 15:05:02;;;;;;;8.00;6.05;;;;;;;;;;5004157;28;20057;-77
2022/06/04 15:07:45;;;;;;;4.63;4.22;;;;;;;;;;4997434;28;20038;-75
2022/06/04 15:10:31;;;;;;;5.70;4.68;;;;;;;;;;5009606;28;20050;-76
2022/06/04 15:13:17;;;;;;;6.63;4.30;;;;;;;;;;5013537;28;20368;-76
2022/06/04 15:15:59;;;;;;;9.88;4.15;;;;;;;;;;4992819;28;20037;-75
2022/06/04 15:18:39;;;;;;;;;;;;;;;;;;5001389;28;20168;-75
2022/06/04 15:21:26;;;;;;;8.80;4.80;;;;;;;;;;5000072;28;20420;-76
2022/06/04 15:24:04;;;;;;;7.60;4.97;;;;;;;;;;4993140;28;20088;-76
2022/06/04 15:26:49;;;;;;;5.20;4.60;;;;;;;;;;5003289;28;20431;-75
2022/06/04 15:35:48;;;;;;;5.35;4.85;;;;;;;;;;4999318;28;20445;-77
2022/06/04 15:38:30;;;;;;;6.80;5.10;;;;;;;;;;5002528;28;20026;-78
2022/06/04 15:40:58;;;;;;;7.32;5.65;;;;;;;;;;4996683;28;20088;-78
2022/06/04 15:43:36;;;;;;;6.68;5.20;;;;;;;;;;5002310;28;20060;-75
2022/06/04 15:46:09;;;;;;;5.15;4.60;;;;;;;;;;4999519;28;20541;-78
2022/06/04 15:48:40;;;;;;;7.72;5.55;;;;;;;;;;5015032;28;20037;-77